Terminal Aerodrome Forecast
Issued by NWS

Current Version | Previous Version | Text Only | Print | Product List | Glossary On
Versions: 1 2 3 4 5 6 7 8 9 10 11 12 13 14 15 16 17 18 19 20 21 22 23 24 25 26 27 28
000
FTUS42 KRAH 301120
TAFRWI
TAF
KRWI 301120Z 3012/3112 20012KT P6SM BKN040 OVC070 WS015/24045KT
      TEMPO 3014/3018 5SM -RA BR OVC010
     FM302000 24012G20KT P6SM SCT025 BKN040
     FM310100 30006KT P6SM SKC=

USA.gov is the U.S. government's official web portal to all federal, state and local government web resources and services.